Sarcobatus Flat, Nevada Weather observations

Data are for observation ending at time listed.
 Day   Time    Ave.   Ave.  Ave.  Vector   Max.   Stn.    Total    Solar   Ave.  
  of    of     Air    Rel.  Wind   Wind    Wind   Baro.  Precip.   Rad.    Soil  
Year   Day     Temp.  Hum.  Speed  Dir.    Gust   Pres.                    Temp. 
2016   (PST)    F      %     mph   deg.    mph     mb.     in.     W/m2     F   
------------------------------------------------------------------------------
 149   19:10   73.8    23   11.1   302     16.4   875.4    0.00       1    999.0
 149   19:20   73.4    23    8.2   321     12.9   875.6    0.00       0    999.0
 149   19:30   73.0    23   13.8   310     20.0   875.7    0.00       0    999.0
 149   19:40   72.5    24   12.6   318     16.6   875.9    0.00       0    999.0
 149   19:50   72.4    24   14.2   323     19.6   876.0    0.00       0    999.0
 149   20:00   72.2    24   13.1   326     19.6   876.1    0.00       0    999.0
 149   20:10   71.9    24   11.3   325     16.1   876.3    0.00       0    999.0
 149   20:20   71.6    25    8.4   330     13.6   876.5    0.00       0    999.0
 149   20:30   71.5    25    7.9   336     12.5   876.6    0.00       0    999.0
 149   20:40   71.4    25    7.8   331     13.7   876.7    0.00       0    999.0
 149   20:50   71.7    24    8.7   338     14.9   876.7    0.00       0    999.0
 149   21:00   71.2    26   10.6   328     14.7   876.9    0.00       0    999.0
 149   21:10   70.6    27   10.8   324     15.1   876.9    0.00       0    999.0
 149   21:20   70.3    27   11.2   325     16.7   876.9    0.00       0    999.0
 149   21:30   70.2    27   13.2   318     18.4   876.9    0.00       0    999.0
 149   21:40   69.7    28   12.0   314     16.5   877.0    0.00       0    999.0
 149   21:50   69.4    28   13.2   320     17.5   877.0    0.00       0    999.0
 149   22:00   68.8    29   11.2   324     16.1   877.1    0.00       0    999.0
 149   22:10   68.2    30    8.9   335     14.1   877.2    0.00       0    999.0
 149   22:20   67.8    30    8.6   332     11.5   877.2    0.00       0    999.0
 149   22:30   67.7    30    8.8   338     12.9   877.2    0.00       0    999.0
 149   22:40   67.5    30    9.1   335     14.1   877.2    0.00       0    999.0
 149   22:50   67.3    30    9.2   316     12.5   877.3    0.00       0    999.0
 149   23:00   67.0    31    8.1   316     13.2   877.4    0.00       0    999.0
 149   23:10   66.5    31    5.9   343     12.9   877.5    0.00       0    999.0
 149   23:20   66.0    32    5.6   351      8.1   877.5    0.00       0    999.0
 149   23:30   65.6    32    6.8   322     10.5   877.3    0.00       0    999.0
 149   23:40   66.0    32    8.3   320     13.7   877.3    0.00       0    999.0
 149   23:50   65.9    32    7.9   326     10.8   877.4    0.00       0    999.0
 150    0:00   65.4    32    6.0   325     10.1   877.4    0.00       0    999.0
 150    0:10   64.3    33    3.9   332      6.3   877.5    0.00       0    999.0
 150    0:20   63.5    34    5.1   337      7.8   877.4    0.00       0    999.0
 150    0:30   61.9    36    4.5   332      5.8   877.4    0.00       0    999.0
 150    0:40   61.6    36    5.3   339      6.4   877.4    0.00       0    999.0
 150    0:50   60.5    37    5.2   342      6.6   877.5    0.00       0    999.0
 150    1:00   59.7    37    3.8   354      6.2   877.6    0.00       0    999.0
 150    1:10   58.1    39    4.7   341      5.9   877.6    0.00       0    999.0
 150    1:20   57.9    40    4.4   339      6.1   877.5    0.00       0    999.0
 150    1:30   57.9    40    4.9   332      6.1   877.5    0.00       0    999.0
 150    1:40   57.6    41    4.6   330      6.2   877.5    0.00       0    999.0
 150    1:50   58.5    40    3.2   333      4.7   877.4    0.00       0    999.0
 150    2:00   58.3    40    1.4   309      3.7   877.4    0.00       0    999.0
 150    2:10   57.1    41    3.8   348      6.3   877.4    0.00       0    999.0
 150    2:20   55.0    43    5.3   341      6.7   877.4    0.00       0    999.0
 150    2:30   54.9    44    6.1   326      7.6   877.5    0.00       0    999.0
 150    2:40   55.5    44    7.0   326      8.6   877.5    0.00       0    999.0
 150    2:50   57.0    42    6.5   320      7.9   877.5    0.00       0    999.0
 150    3:00   55.9    43    4.5   323      5.9   877.7    0.00       0    999.0
 150    3:10   54.4    45    6.1   326      8.0   877.7    0.00       0    999.0
 150    3:20   54.9    45    7.8   324      9.1   877.7    0.00       0    999.0
 150    3:30   55.6    44    7.1   335      8.7   877.8    0.00       0    999.0
 150    3:40   57.5    42    7.8   334      9.3   877.8    0.00       0    999.0
 150    3:50   58.0    42    7.3   334      9.2   877.9    0.00       0    999.0
 150    4:00   58.9    41    7.8   335     10.3   878.0    0.00       0    999.0
 150    4:10   57.3    43    7.1   340      8.6   878.0    0.00       0    999.0
 150    4:20   56.9    44    8.0   334      9.1   878.1    0.00       0    999.0
 150    4:30   57.0    44    6.5   331      8.9   878.2    0.00       3    999.0
 150    4:40   56.3    45    7.2   324      9.3   878.3    0.00       5    999.0
 150    4:50   57.1    44    9.2   324     12.1   878.3    0.00      14    999.0
 150    5:00   57.7    44   10.2   329     13.8   878.4    0.00      23    999.0
 150    5:10   57.7    44   10.4   331     12.7   878.4    0.00      33    999.0
 150    5:20   57.7    44   10.2   330     12.7   878.5    0.00      60    999.0
 150    5:30   58.8    42    9.7   333     12.1   878.5    0.00     125    999.0
 150    5:40   59.3    42    8.4   334     11.1   878.6    0.00      92    999.0
 150    5:50   59.5    42    8.5   338     11.2   878.7    0.00     106    999.0
 150    6:00   61.2    40    8.8   330     12.6   878.8    0.00     215    999.0
 150    6:10   62.0    38    8.7   321     13.1   878.9    0.00     157    999.0
 150    6:20   63.2    37    9.5   320     12.3   878.9    0.00     324    999.0
 150    6:30   65.0    34    9.1   321     11.5   878.9    0.00     188    999.0
 150    6:40   65.5    34   10.0   326     14.9   879.0    0.00     187    999.0
 150    6:50   66.1    33    9.9   323     13.1   879.1    0.00     253    999.0
 150    7:00   66.9    32   10.0   328     13.4   879.1    0.00     352    999.0
 150    7:10   67.4    32    9.9   322     13.9   879.2    0.00     308    999.0
 150    7:20   68.7    30    8.9   329     12.7   879.3    0.00     309    999.0
 150    7:30   69.3    29    6.6   320      9.9   879.3    0.00     351    999.0
 150    7:40   70.0    28    6.2   315      9.3   879.3    0.00     351    999.0
 150    7:50   71.0    28    3.3   328      8.0   879.4    0.00     509    999.0
 150    8:00   72.6    26    2.0   133      4.3   879.4    0.00     641    999.0
 150    8:10   74.3    24    1.5   296      4.6   879.4    0.00     634    999.0
 150    8:20   74.7    24    3.6    96      6.7   879.3    0.00     704    999.0
 150    8:30   74.9    23    1.9    24      5.4   879.3    0.00     663    999.0
 150    8:40   75.8    22    2.0   270      4.6   879.2    0.00     778    999.0
 150    8:50   75.6    22    3.4   268      6.1   879.2    0.00     768    999.0
 150    9:00   75.2    22    3.2   269      6.0   879.0    0.00     805    999.0
 150    9:10   75.5    22    3.2   354      6.0   879.0    0.00     822    999.0
 150    9:20   76.5    21    3.4    44      7.7   878.9    0.00     842    999.0
 150    9:30   76.3    21    4.7   114      9.4   878.9    0.00     897    999.0
 150    9:40   77.2    19    2.9   103      7.2   878.9    0.00     854    999.0
 150    9:50   78.0    19    4.3   224     10.4   878.8    0.00     803    999.0
 150   10:00   77.8    17    5.2   174      9.1   878.7    0.00     712    999.0
 150   10:10   77.7    17    4.6   221     10.2   878.7    0.00     874    999.0
 150   10:20   79.1    15    5.7   199      9.2   878.6    0.00     967    999.0
 150   10:30   79.2    14    3.5   162      9.1   878.6    0.00    1001    999.0
 150   10:40   79.5    14    6.9   182     12.9   878.5    0.00    1000    999.0
 150   10:50   80.7    14    5.3   216     15.1   878.3    0.00    1013    999.0
 150   11:00   80.4    14    5.3   148     11.7   878.3    0.00    1024    999.0
 150   11:10   79.8    14    6.9   113     14.4   878.2    0.00    1047    999.0
 150   11:20   81.1    13    7.7   208     16.5   878.2    0.00    1052    999.0
 150   11:30   81.3    13    3.9   208     10.2   878.1    0.00    1072    999.0
 150   11:40   81.3    13    9.9   149     17.7   878.0    0.00    1073    999.0
 150   11:50   80.9    13    7.7   111     18.2   877.9    0.00     471    999.0
 150   12:00   79.9    13   10.3   126     17.2   877.8    0.00     694    999.0
 150   12:10   81.1    13    6.5   142     16.7   877.7    0.00    1078    999.0
 150   12:20   81.8    13    9.7   189     19.4   877.6    0.00    1074    999.0
 150   12:30   82.1    12    9.1   220     21.3   877.5    0.00    1061    999.0
 150   12:40   82.5    12    7.1   169     13.8   877.5    0.00    1049    999.0
 150   12:50   83.1    12   10.0   221     18.9   877.4    0.00    1040    999.0
 150   13:00   82.2    12    6.1   273     16.4   877.2    0.00    1032    999.0
 150   13:10   83.8    12   11.2   162     20.5   877.2    0.00    1036    999.0
 150   13:20   82.8    12    9.0   154     17.2   877.1    0.00     855    999.0
 150   13:30   84.0    11    7.2   163     14.0   876.9    0.00     984    999.0
 150   13:40   83.3    11   10.2   146     20.8   876.8    0.00     984    999.0
 150   13:50   83.0    11    8.2   147     14.0   876.7    0.00     871    999.0
 150   14:00   81.9    11    5.4   165     15.1   876.6    0.00     392    999.0
 150   14:10   83.5    10    9.7   182     16.4   876.5    0.00     893    999.0
 150   14:20   83.0    10    7.0   174     19.5   876.3    0.00     872    999.0
 150   14:30   84.0    10   10.2   196     17.5   876.3    0.00     852    999.0
 150   14:40   84.1    10    4.5   227      8.8   876.2    0.00     822    999.0
 150   14:50   83.8    10    6.9   153     17.4   876.0    0.00     798    999.0
 150   15:00   84.3    10   10.7   166     20.9   875.9    0.00     784    999.0
 150   15:10   84.1    10    7.2   172     15.3   875.9    0.00     746    999.0
 150   15:20   84.4    10    6.8   172     16.3   875.8    0.00     718    999.0
 150   15:30   83.4    10    7.6   147     13.8   875.7    0.00     697    999.0
 150   15:40   83.7    10    5.7    72     11.9   875.5    0.00     669    999.0
 150   15:50   85.0    10   10.1   180     18.3   875.5    0.00     636    999.0
 150   16:00   83.9    10    5.8   184     12.0   875.4    0.00     579    999.0
 150   16:10   84.3    10    8.7   207     16.9   875.3    0.00     531    999.0
 150   16:20   83.9    11    8.1   185     17.1   875.3    0.00     500    999.0
 150   16:30   83.8    10    6.1   164     11.2   875.2    0.00     465    999.0
 150   16:40   83.2    10    6.4   144     11.0   875.2    0.00     437    999.0
 150   16:50   83.8    10    7.6   182     14.5   875.2    0.00     401    999.0
 150   17:00   83.0    10    5.8   153     12.2   875.1    0.00     390    999.0
 150   17:10   83.8    10    6.9   189     18.1   875.2    0.00     357    999.0
 150   17:20   83.3    10    8.9   184     13.5   875.2    0.00     321    999.0
 150   17:30   83.1    10    7.4   190     12.6   875.2    0.00     276    999.0
 150   17:40   82.8    10    3.6   188      7.5   875.3    0.00     213    999.0
 150   17:50   82.4    10    5.1   218      9.8   875.4    0.00     136    999.0
 150   18:00   81.9    10    5.8   228      9.6   875.4    0.00      73    999.0
 150   18:10   81.3    11    8.5   234     12.0   875.5    0.00      59    999.0
 150   18:20   81.4    11    7.1   247      9.6   875.7    0.00      64    999.0
 150   18:30   81.2    11    6.4   233      9.7   875.8    0.00      84    999.0
 150   18:40   80.7    11    5.7   223      8.4   875.8    0.00      43    999.0
 150   18:50   79.6    11    5.3   228      7.5   875.9    0.00      20    999.0
 150   19:00   78.4    12    4.8   224      6.9   876.0    0.00      11    999.0

Return to Sarcobatus Flat, Nevada graphs page.


Western Regional Climate Center,wrcc@dri.edu